Time;durP1;ratioP1;P1;durP2;ratioP2;P2;SDS_P1;SDS_P2;PMS_P1;PMS_P2;Temp;Humidity;BMP_temperature;BMP_pressure;BME280_temperature;BME280_humidity;BME280_pressure;Samples;Min_cycle;Max_cycle;Signal;HPM_P1;HPM_P2
2023/01/25 00:01:32;;;;;;;117.90;52.20;;;;;;;2.79;93.54;101560.50;5068974;28;20037;-26
2023/01/25 00:03:57;;;;;;;91.40;39.97;;;;;;;2.66;94.16;101544.09;5069053;28;20025;-27
2023/01/25 00:06:22;;;;;;;31.88;15.95;;;;;;;2.75;92.99;101548.56;5069257;28;20400;-26
2023/01/25 00:08:49;;;;;;;57.58;30.02;;;;;;;2.79;92.45;101571.03;5069189;28;20035;-27
2023/01/25 00:11:15;;;;;;;76.13;36.35;;;;;;;2.83;93.16;101568.16;5067497;28;20033;-29
2023/01/25 00:13:41;;;;;;;37.72;18.77;;;;;;;2.78;92.22;101569.38;5068792;28;20086;-28
2023/01/25 00:16:07;;;;;;;63.88;33.67;;;;;;;2.73;92.48;101563.66;5069553;28;20036;-27
2023/01/25 00:18:32;;;;;;;42.90;22.40;;;;;;;2.77;92.60;101567.69;5069133;28;20033;-31
2023/01/25 00:20:58;;;;;;;34.70;19.25;;;;;;;2.61;93.54;101575.25;5068986;28;20039;-31
2023/01/25 00:23:23;;;;;;;25.23;13.93;;;;;;;2.47;93.71;101533.44;5050682;28;20111;-32
2023/01/25 00:25:55;;;;;;;35.90;19.80;;;;;;;2.60;95.38;101571.78;5067365;28;20036;-30
2023/01/25 00:28:21;;;;;;;43.97;25.23;;;;;;;2.69;93.70;101562.25;5071217;28;20035;-28
2023/01/25 00:30:46;;;;;;;23.08;13.25;;;;;;;2.85;94.19;101564.41;5089464;28;20028;-28
2023/01/25 00:33:15;;;;;;;15.88;9.15;;;;;;;2.84;93.11;101567.19;5089147;28;20095;-29
2023/01/25 00:35:40;;;;;;;;;;;;;;;2.64;95.65;101572.34;5089600;28;20035;-29
2023/01/25 00:38:26;;;;;;;11.30;6.63;;;;;;;2.70;95.58;101547.31;5088916;28;19916;-30
2023/01/25 00:40:51;;;;;;;9.52;4.28;;;;;;;2.73;94.82;101576.84;5064168;28;20052;-29
2023/01/25 00:43:17;;;;;;;10.40;4.93;;;;;;;2.57;96.72;101571.19;5077481;28;20059;-28
2023/01/25 00:45:42;;;;;;;9.27;4.35;;;;;;;2.63;94.61;101573.31;5050753;28;20389;-28
2023/01/25 00:48:08;;;;;;;9.32;4.95;;;;;;;2.58;96.12;101580.78;5050817;28;20431;-26
2023/01/25 00:50:36;;;;;;;10.60;6.03;;;;;;;2.38;95.82;101575.38;5069066;28;20774;-27
2023/01/25 00:53:01;;;;;;;9.80;4.47;;;;;;;2.56;96.00;101572.16;5072595;28;20071;-29
2023/01/25 00:55:26;;;;;;;10.88;4.75;;;;;;;2.54;95.93;101574.94;5072668;28;20119;-27
2023/01/25 00:57:52;;;;;;;10.57;4.57;;;;;;;2.69;95.13;101570.16;5054762;28;20028;-27
2023/01/25 01:00:17;;;;;;;12.35;4.40;;;;;;;2.69;95.77;101580.69;5072483;28;20450;-27
2023/01/25 01:02:43;;;;;;;10.20;4.75;;;;;;;2.46;95.87;101558.94;5072437;28;20037;-28
2023/01/25 01:05:08;;;;;;;10.30;5.00;;;;;;;2.65;95.76;101574.00;5054321;28;20025;-29
2023/01/25 01:07:34;;;;;;;12.18;4.82;;;;;;;2.59;96.16;101574.53;5071893;28;20037;-28
2023/01/25 01:09:59;;;;;;;10.10;4.88;;;;;;;2.58;95.95;101578.16;5053959;28;20082;-30
2023/01/25 01:12:25;;;;;;;10.20;4.43;;;;;;;2.48;96.84;101551.75;5054298;28;20103;-27
2023/01/25 01:14:50;;;;;;;9.77;4.82;;;;;;;2.58;95.94;101564.97;5072113;28;20028;-29
2023/01/25 01:17:15;;;;;;;10.15;4.60;;;;;;;2.58;96.09;101568.44;5071989;28;20029;-29
2023/01/25 01:19:41;;;;;;;11.52;4.53;;;;;;;2.65;95.24;101579.28;5072143;28;20020;-30
2023/01/25 01:22:06;;;;;;;11.40;4.53;;;;;;;2.45;95.81;101556.44;5054030;28;20055;-29
2023/01/25 01:24:32;;;;;;;11.50;4.78;;;;;;;2.53;95.47;101572.41;5071729;28;20484;-29
2023/01/25 01:26:57;;;;;;;9.93;4.63;;;;;;;2.58;97.30;101578.16;5054126;28;20082;-33
2023/01/25 01:29:23;;;;;;;10.18;4.00;;;;;;;2.41;96.60;101561.97;5071736;28;20035;-31
2023/01/25 01:31:50;;;;;;;9.25;4.78;;;;;;;2.52;95.74;101547.06;5074844;28;20063;-30
2023/01/25 01:34:16;;;;;;;9.50;4.63;;;;;;;2.75;95.90;101553.81;5080697;28;20123;-29
2023/01/25 01:36:42;;;;;;;9.88;4.53;;;;;;;2.45;96.20;101538.00;5070061;28;20132;-29
2023/01/25 01:39:07;;;;;;;12.48;5.00;;;;;;;2.62;95.81;101553.22;5080420;28;20075;-31
2023/01/25 01:41:33;;;;;;;12.15;4.95;;;;;;;2.29;95.33;101520.88;5074488;28;20086;-28
2023/01/25 01:43:58;;;;;;;11.93;5.07;;;;;;;2.57;94.90;101534.31;5071861;28;20044;-30
2023/01/25 01:46:33;;;;;;;10.13;4.47;;;;;;;2.63;97.06;101554.88;5071784;28;20060;-29
2023/01/25 01:49:09;;;;;;;12.20;5.15;;;;;;;2.61;96.08;101556.78;5053514;28;20024;-35
2023/01/25 01:51:37;;;;;;;10.35;4.57;;;;;;;2.72;95.73;101554.09;5071178;28;20056;-27
2023/01/25 01:54:15;;;;;;;10.43;4.63;;;;;;;2.68;95.38;101550.06;5053159;28;20028;-30
2023/01/25 01:56:50;;;;;;;12.10;5.15;;;;;;;2.79;94.67;101552.59;5071435;28;20025;-27
2023/01/25 01:59:16;;;;;;;10.00;4.60;;;;;;;2.71;95.41;101543.69;5071189;28;20037;-27
2023/01/25 02:01:43;;;;;;;9.57;4.07;;;;;;;2.47;96.36;101549.22;5069286;28;20546;-27
2023/01/25 02:04:09;;;;;;;10.68;4.35;;;;;;;2.38;97.18;101546.41;5070260;28;20071;-27
2023/01/25 02:06:47;;;;;;;8.82;4.28;;;;;;;2.64;95.54;101545.19;5069951;28;20028;-26
2023/01/25 02:09:16;;;;;;;9.75;4.47;;;;;;;2.77;95.07;101543.16;5053114;28;20087;-29
2023/01/25 02:11:42;;;;;;;9.88;4.45;;;;;;;2.72;95.03;101551.47;5052830;28;20127;-28
2023/01/25 02:14:08;;;;;;;8.75;4.07;;;;;;;2.83;94.48;101544.44;5071276;28;20729;-28
2023/01/25 02:16:34;;;;;;;10.10;4.35;;;;;;;2.56;94.67;101548.47;5052653;28;20025;-26
2023/01/25 02:19:01;;;;;;;9.25;3.85;;;;;;;2.45;94.65;101519.56;5070968;28;20028;-36
2023/01/25 02:21:32;;;;;;;7.82;3.50;;;;;;;2.44;94.00;101549.50;5070737;28;20020;-29
2023/01/25 02:24:08;;;;;;;8.15;3.30;;;;;;;2.31;93.55;101555.81;5070797;28;20028;-29
2023/01/25 02:26:34;;;;;;;7.75;3.58;;;;;;;2.26;95.29;101550.06;5052716;28;20033;-28
2023/01/25 02:29:05;;;;;;;8.23;4.07;;;;;;;2.53;96.12;101559.25;5070368;28;20033;-32
2023/01/25 02:31:31;;;;;;;8.48;3.50;;;;;;;2.38;95.47;101530.63;5070367;28;20033;-29
2023/01/25 02:33:56;;;;;;;9.15;3.88;;;;;;;2.48;94.80;101550.91;5070556;28;20024;-27
2023/01/25 02:36:28;;;;;;;8.40;3.65;;;;;;;2.10;96.33;101553.13;5074202;28;20503;-27
2023/01/25 02:38:58;;;;;;;6.07;2.65;;;;;;;2.28;92.78;101545.50;5070224;28;20503;-28
2023/01/25 02:41:28;;;;;;;8.45;2.88;;;;;;;1.96;92.88;101524.50;5051726;28;20044;-28
2023/01/25 02:43:54;;;;;;;8.75;3.15;;;;;;;1.92;91.65;101521.31;5070680;28;20074;-29
2023/01/25 02:46:30;;;;;;;9.13;2.90;;;;;;;1.98;91.64;101546.25;5070279;28;20605;-27
2023/01/25 02:48:57;;;;;;;4.85;2.53;;;;;;;1.66;93.07;101515.53;5068984;28;20089;-27
2023/01/25 02:51:26;;;;;;;6.40;2.72;;;;;;;1.97;91.19;101552.50;5051947;28;20039;-27
2023/01/25 02:53:51;;;;;;;5.75;2.33;;;;;;;1.89;91.00;101532.06;5069827;28;20040;-28
2023/01/25 02:56:19;;;;;;;6.28;2.70;;;;;;;1.90;89.48;101536.38;5069892;28;20032;-27
2023/01/25 02:58:45;;;;;;;6.80;2.43;;;;;;;2.06;90.16;101558.78;5070101;28;20029;-27
2023/01/25 03:01:11;;;;;;;7.30;3.38;;;;;;;2.15;89.84;101535.19;5070108;28;20798;-27
2023/01/25 03:03:37;;;;;;;8.20;2.85;;;;;;;2.08;88.48;101554.22;5070454;28;20028;-27
2023/01/25 03:06:02;;;;;;;7.22;2.97;;;;;;;1.81;89.25;101542.38;5089985;28;20030;-29
2023/01/25 03:08:28;;;;;;;6.15;2.83;;;;;;;1.99;89.68;101551.41;5089631;28;20027;-28
2023/01/25 03:11:01;;;;;;;18.10;10.73;;;;;;;1.93;89.00;101525.59;5090077;28;20852;-33
2023/01/25 03:13:27;;;;;;;37.30;21.40;;;;;;;2.15;88.38;101560.66;5071108;28;20028;-27
2023/01/25 03:16:16;;;;;;;9.07;3.60;;;;;;;2.20;87.01;101550.59;5089992;28;20059;-28
2023/01/25 03:18:42;;;;;;;10.88;5.18;;;;;;;2.09;87.70;101537.50;5089283;28;20111;-29
2023/01/25 03:21:12;;;;;;;10.85;7.57;;;;;;;2.07;87.31;101537.63;5069353;28;20107;-27
2023/01/25 03:23:39;;;;;;;42.10;23.42;;;;;;;2.16;89.38;101544.72;5051514;28;20037;-31
2023/01/25 03:26:06;;;;;;;17.50;9.23;;;;;;;2.13;87.23;101509.97;5051539;28;20032;-29
2023/01/25 03:28:31;;;;;;;29.13;17.75;;;;;;;2.10;88.39;101510.19;5051468;28;20032;-30
2023/01/25 03:30:56;;;;;;;15.98;9.00;;;;;;;2.17;90.02;101533.25;5068076;28;20036;-28
2023/01/25 03:33:22;;;;;;;15.30;9.60;;;;;;;1.97;87.53;101541.97;5073993;28;20016;-31
2023/01/25 03:35:54;;;;;;;17.25;11.23;;;;;;;2.00;89.73;101536.44;5063872;28;20020;-28
2023/01/25 03:38:20;;;;;;;32.08;19.80;;;;;;;2.15;89.34;101519.38;5089463;28;20039;-29
2023/01/25 03:40:46;;;;;;;16.17;10.77;;;;;;;2.15;87.39;101515.94;5088182;28;20051;-27
2023/01/25 03:43:11;;;;;;;20.40;15.52;;;;;;;2.13;86.77;101542.38;5089336;28;20769;-31
2023/01/25 03:45:37;;;;;;;20.75;14.88;;;;;;;2.16;86.80;101525.47;5060446;28;20067;-28
2023/01/25 03:48:02;;;;;;;15.75;10.82;;;;;;;2.38;86.00;101540.31;5068851;28;20028;-28
2023/01/25 03:50:28;;;;;;;17.02;7.43;;;;;;;2.07;86.74;101521.00;5069259;28;20480;-27
2023/01/25 03:53:00;;;;;;;152.43;53.47;;;;;;;2.41;86.46;101540.91;5069276;28;20055;-33
2023/01/25 03:55:25;;;;;;;9.15;4.00;;;;;;;2.36;88.25;101537.81;5069289;28;20032;-26
2023/01/25 03:57:51;;;;;;;12.52;4.85;;;;;;;2.00;87.35;101521.50;5067767;28;20361;-28
2023/01/25 04:00:18;;;;;;;17.33;8.32;;;;;;;2.16;88.03;101518.41;5068972;28;20051;-28
2023/01/25 04:02:45;;;;;;;6.35;2.58;;;;;;;2.25;87.73;101548.41;5050902;28;20044;-27
2023/01/25 04:05:10;;;;;;;9.10;3.88;;;;;;;2.37;87.90;101543.91;5050830;28;20119;-34
2023/01/25 04:07:36;;;;;;;7.00;2.78;;;;;;;2.28;88.01;101534.97;5071389;28;20038;-28
2023/01/25 04:10:02;;;;;;;6.78;2.83;;;;;;;2.18;87.16;101539.34;5083743;28;20032;-28
2023/01/25 04:12:28;;;;;;;50.75;22.75;;;;;;;2.42;86.79;101537.28;5088681;28;20047;-29
2023/01/25 04:14:54;;;;;;;22.83;9.38;;;;;;;2.25;87.87;101515.97;5070691;28;20036;-29
2023/01/25 04:17:19;;;;;;;17.55;8.38;;;;;;;2.22;88.40;101540.75;5070324;28;20070;-28
2023/01/25 04:19:44;;;;;;;13.30;5.35;;;;;;;2.16;87.71;101528.94;5089031;28;20059;-28
2023/01/25 04:22:10;;;;;;;12.25;6.38;;;;;;;2.15;87.88;101537.00;5089014;28;20024;-27
2023/01/25 04:24:35;;;;;;;10.82;4.97;;;;;;;2.12;89.04;101545.13;5088775;28;20027;-30
2023/01/25 04:27:01;;;;;;;177.20;94.72;;;;;;;1.98;88.65;101527.84;5073466;28;20031;-28
2023/01/25 04:29:26;;;;;;;11.70;6.55;;;;;;;2.16;89.42;101551.81;5092776;28;20039;-29
2023/01/25 04:31:51;;;;;;;28.98;16.55;;;;;;;2.08;89.44;101534.00;5068242;28;20782;-29
2023/01/25 04:34:17;;;;;;;16.02;7.15;;;;;;;2.21;87.72;101552.25;5084853;28;20108;-29
2023/01/25 04:36:42;;;;;;;55.67;33.22;;;;;;;2.20;88.16;101550.59;5072868;28;20979;-29
2023/01/25 04:39:08;;;;;;;22.63;11.85;;;;;;;2.14;89.31;101557.19;5072527;28;20539;-29
2023/01/25 04:41:33;;;;;;;35.30;19.58;;;;;;;2.38;87.79;101559.56;5072380;28;20548;-29
2023/01/25 04:43:58;;;;;;;16.33;8.15;;;;;;;2.00;90.27;101560.97;5054385;28;20068;-31
2023/01/25 04:46:24;;;;;;;7.88;3.83;;;;;;;2.01;90.60;101559.16;5072068;28;20425;-29
2023/01/25 04:48:49;;;;;;;9.63;4.38;;;;;;;1.95;91.16;101564.94;5072712;28;20021;-30
2023/01/25 04:51:14;;;;;;;10.82;5.82;;;;;;;2.03;90.69;101572.22;5071952;28;20241;-30
2023/01/25 04:53:40;;;;;;;10.27;5.13;;;;;;;1.71;90.25;101542.28;5072338;28;20025;-27
2023/01/25 04:56:06;;;;;;;8.65;4.00;;;;;;;1.87;90.51;101568.19;5072335;28;20060;-29
2023/01/25 04:58:31;;;;;;;10.70;4.63;;;;;;;1.80;92.39;101577.56;5072452;28;20032;-29
2023/01/25 05:01:03;;;;;;;10.85;5.40;;;;;;;1.83;91.77;101561.50;5072095;28;20029;-28
2023/01/25 05:03:28;;;;;;;9.65;4.40;;;;;;;1.91;91.65;101561.72;5071963;28;20035;-27
2023/01/25 05:05:54;;;;;;;11.85;4.75;;;;;;;1.94;90.81;101566.75;5070761;28;20036;-27
2023/01/25 05:08:19;;;;;;;11.20;4.55;;;;;;;1.97;90.21;101576.16;5071950;28;20033;-27
2023/01/25 05:10:45;;;;;;;15.95;7.35;;;;;;;1.92;90.78;101579.19;5071929;28;20109;-26
2023/01/25 05:13:10;;;;;;;8.75;4.47;;;;;;;1.71;90.28;101563.34;5071972;28;20415;-27
2023/01/25 05:15:36;;;;;;;12.35;6.05;;;;;;;2.00;89.46;101579.41;5071368;28;20540;-27
2023/01/25 05:18:02;;;;;;;16.30;9.10;;;;;;;1.98;90.74;101573.44;5053826;28;20029;-27
2023/01/25 05:20:27;;;;;;;29.50;17.80;;;;;;;1.99;89.96;101577.72;5071892;28;20033;-27
2023/01/25 05:22:53;;;;;;;23.42;13.27;;;;;;;1.89;88.50;101549.66;5071850;28;20028;-27
2023/01/25 05:28:06;;;;;;;22.05;15.13;;;;;;;1.87;89.14;101570.00;5072038;28;20407;-28
2023/01/25 05:30:32;;;;;;;12.00;5.65;;;;;;;1.80;88.96;101567.84;5053887;28;20032;-27
2023/01/25 05:32:58;;;;;;;12.65;6.22;;;;;;;1.80;90.85;101569.66;5072135;28;20024;-27
2023/01/25 05:35:23;;;;;;;17.30;5.93;;;;;;;1.72;90.46;101569.44;5055847;28;20046;-34
2023/01/25 05:37:48;;;;;;;13.35;5.88;;;;;;;1.57;89.37;101577.63;5091359;28;20059;-27
2023/01/25 05:40:14;;;;;;;15.15;6.32;;;;;;;1.56;90.33;101580.38;5073200;28;20024;-27
2023/01/25 05:42:39;;;;;;;14.20;6.07;;;;;;;1.65;90.47;101578.78;5073297;28;20024;-29
2023/01/25 05:45:06;;;;;;;15.32;5.25;;;;;;;1.53;89.14;101559.56;5073607;28;20024;-32
2023/01/25 05:47:31;;;;;;;16.52;5.68;;;;;;;1.55;90.20;101563.75;5084794;28;20025;-33
2023/01/25 05:49:57;;;;;;;13.65;5.78;;;;;;;1.59;91.14;101565.19;5080040;28;20484;-32
2023/01/25 05:52:22;;;;;;;12.93;5.85;;;;;;;1.68;90.49;101586.44;5071299;28;20158;-34
2023/01/25 05:54:48;;;;;;;13.40;5.85;;;;;;;1.49;91.50;101566.88;5071336;28;20024;-31
2023/01/25 05:57:14;;;;;;;14.60;5.55;;;;;;;1.44;92.27;101568.19;5070761;28;20032;-29
2023/01/25 05:59:39;;;;;;;13.60;5.68;;;;;;;1.72;91.44;101590.50;5071435;28;20025;-30
2023/01/25 06:02:05;;;;;;;16.77;6.72;;;;;;;1.56;91.34;101586.44;5052866;28;20035;-28
2023/01/25 06:04:30;;;;;;;14.07;5.28;;;;;;;1.81;90.56;101576.59;5071039;28;20111;-30
2023/01/25 06:06:56;;;;;;;19.52;8.70;;;;;;;1.99;89.96;101582.97;5069540;28;20419;-28
2023/01/25 06:09:22;;;;;;;20.63;8.02;;;;;;;1.86;90.64;101574.44;5070676;28;20103;-30
2023/01/25 06:11:48;;;;;;;17.48;7.15;;;;;;;1.79;89.44;101554.81;5070662;28;20047;-30
2023/01/25 06:14:13;;;;;;;14.93;6.13;;;;;;;1.92;90.29;101581.81;5071036;28;20025;-28
2023/01/25 06:16:39;;;;;;;20.33;9.00;;;;;;;1.84;90.94;101584.25;5070975;28;20094;-27
2023/01/25 06:19:05;;;;;;;15.07;6.88;;;;;;;1.78;90.49;101582.09;5070851;28;20121;-27
2023/01/25 06:21:31;;;;;;;14.30;5.68;;;;;;;1.76;89.77;101591.91;5070602;28;20503;-28
2023/01/25 06:23:57;;;;;;;14.35;6.72;;;;;;;1.76;89.52;101587.47;5052642;28;20051;-28
2023/01/25 06:26:22;;;;;;;13.73;6.53;;;;;;;1.68;89.40;101594.31;5072874;28;20404;-31
2023/01/25 06:28:47;;;;;;;19.13;7.03;;;;;;;1.70;91.22;101593.25;5079714;28;20020;-28
2023/01/25 06:31:15;;;;;;;22.63;8.80;;;;;;;1.84;91.32;101584.25;5090770;28;20114;-33
2023/01/25 06:33:41;;;;;;;15.03;6.83;;;;;;;2.11;88.97;101596.94;5078070;28;20024;-27
2023/01/25 06:36:12;;;;;;;18.90;9.40;;;;;;;1.89;89.46;101592.56;5048844;28;20053;-29
2023/01/25 06:38:38;;;;;;;13.35;6.70;;;;;;;1.93;89.10;101586.09;5050457;28;20029;-27
2023/01/25 06:41:06;;;;;;;14.70;7.03;;;;;;;1.98;88.24;101588.34;5050180;28;20043;-28
2023/01/25 06:43:33;;;;;;;11.07;5.40;;;;;;;2.03;86.50;101598.53;5065713;28;20765;-27
2023/01/25 06:46:10;;;;;;;12.90;5.45;;;;;;;1.83;87.59;101593.06;5050001;28;20045;-28
2023/01/25 06:48:36;;;;;;;11.00;5.00;;;;;;;1.70;88.25;101587.16;5049845;28;20021;-29
2023/01/25 06:51:04;;;;;;;9.95;4.50;;;;;;;1.65;88.57;101566.47;5050177;28;20036;-28
2023/01/25 06:53:33;;;;;;;14.95;7.70;;;;;;;1.97;88.62;101590.16;5049885;28;20029;-27
2023/01/25 06:56:20;;;;;;;12.57;6.18;;;;;;;1.89;87.48;101579.41;5048634;28;20035;-28
2023/01/25 06:58:46;;;;;;;11.23;5.43;;;;;;;1.81;88.39;101566.88;5049996;28;20116;-27
2023/01/25 07:01:15;;;;;;;16.60;7.85;;;;;;;1.91;86.77;101590.66;5049885;28;20040;-29
2023/01/25 07:03:41;;;;;;;18.08;10.20;;;;;;;2.08;87.81;101584.00;5065181;28;20496;-28
2023/01/25 07:06:09;;;;;;;11.32;5.35;;;;;;;1.94;87.28;101579.91;5048324;28;20485;-28
2023/01/25 07:08:35;;;;;;;12.20;5.30;;;;;;;1.91;86.37;101574.03;5050075;28;20021;-34
2023/01/25 07:11:03;;;;;;;10.85;5.13;;;;;;;1.92;86.66;101584.44;5050144;28;20036;-29
2023/01/25 07:13:29;;;;;;;;;;;;;;;2.16;87.55;101593.91;5048759;28;20025;-27
2023/01/25 07:15:56;;;;;;;9.98;4.65;;;;;;;2.25;85.91;101595.81;5049658;28;19908;-31
2023/01/25 07:18:23;;;;;;;9.13;4.18;;;;;;;2.34;85.28;101595.03;5061012;28;20025;-30
2023/01/25 07:20:49;;;;;;;10.00;5.03;;;;;;;2.12;87.47;101598.59;5061736;28;20568;-27
2023/01/25 07:23:14;;;;;;;11.65;6.07;;;;;;;2.32;84.29;101599.56;5048475;28;20112;-31
2023/01/25 07:25:46;;;;;;;9.75;5.22;;;;;;;2.21;85.27;101608.38;5053899;28;20064;-29
2023/01/25 07:28:12;;;;;;;9.40;4.47;;;;;;;2.10;84.65;101582.09;5054333;28;20035;-30
2023/01/25 07:30:39;;;;;;;11.02;4.30;;;;;;;2.10;84.90;101597.03;5068273;28;20024;-27
2023/01/25 07:33:04;;;;;;;17.08;9.95;;;;;;;1.90;85.49;101572.34;5063533;28;20423;-29
2023/01/25 07:35:31;;;;;;;10.02;5.20;;;;;;;2.21;85.11;101597.84;5067500;28;20031;-28
2023/01/25 07:37:56;;;;;;;11.13;5.05;;;;;;;2.05;85.53;101604.50;5087629;28;20044;-27
2023/01/25 07:40:24;;;;;;;12.77;7.28;;;;;;;2.25;86.36;101611.59;5089177;28;20039;-28
2023/01/25 07:42:50;;;;;;;11.77;5.35;;;;;;;2.19;86.43;101618.19;5089350;28;20084;-30
2023/01/25 07:45:15;;;;;;;11.23;4.57;;;;;;;2.09;84.37;101609.38;5084907;28;20031;-27
2023/01/25 07:47:40;;;;;;;9.80;3.65;;;;;;;1.74;86.58;101572.78;5087374;28;20039;-28
2023/01/25 07:50:06;;;;;;;13.60;6.57;;;;;;;2.10;86.44;101597.03;5089276;28;20034;-29
2023/01/25 07:52:32;;;;;;;9.70;4.45;;;;;;;2.06;85.07;101582.47;5089758;28;20407;-29
2023/01/25 07:54:58;;;;;;;10.68;5.80;;;;;;;2.08;83.68;101585.81;5089438;28;20032;-28
2023/01/25 07:57:24;;;;;;;9.27;3.90;;;;;;;2.18;83.53;101602.50;5089153;28;20032;-33
2023/01/25 07:59:50;;;;;;;8.50;3.97;;;;;;;2.23;82.06;101608.25;5089249;28;20839;-30
2023/01/25 08:02:15;;;;;;;12.73;7.53;;;;;;;2.01;84.38;101581.06;5088920;28;20032;-31
2023/01/25 08:04:41;;;;;;;10.30;6.15;;;;;;;2.21;82.81;101613.63;5089163;28;20368;-30
2023/01/25 08:07:07;;;;;;;14.60;8.45;;;;;;;2.06;80.85;101603.53;5089646;28;20414;-29
2023/01/25 08:09:33;;;;;;;34.75;16.90;;;;;;;2.18;82.17;101613.03;5088827;28;20023;-29
2023/01/25 08:11:58;;;;;;;11.07;5.10;;;;;;;2.09;83.04;101624.34;5088913;28;20046;-30
2023/01/25 08:14:24;;;;;;;10.95;4.13;;;;;;;2.06;81.56;101617.50;5088917;28;20095;-28
2023/01/25 08:16:49;;;;;;;12.43;4.55;;;;;;;1.99;83.01;101609.28;5088756;28;20032;-29
2023/01/25 08:19:14;;;;;;;11.23;4.50;;;;;;;1.99;81.82;101582.97;5088769;28;20024;-29
2023/01/25 08:21:40;;;;;;;27.90;9.60;;;;;;;2.22;82.39;101609.19;5087411;28;20505;-28
2023/01/25 08:24:07;;;;;;;9.73;4.63;;;;;;;2.44;82.24;101612.69;5069313;28;20025;-26
2023/01/25 08:26:34;;;;;;;14.77;5.75;;;;;;;2.57;82.32;101605.44;5050901;28;20086;-26
2023/01/25 08:29:00;;;;;;;7.50;3.17;;;;;;;2.41;81.57;101622.53;5067449;28;20035;-28
2023/01/25 08:31:28;;;;;;;9.85;4.43;;;;;;;2.16;81.46;101600.00;5061605;28;20032;-28
2023/01/25 08:33:54;;;;;;;8.98;3.95;;;;;;;2.30;80.41;101617.31;5070693;28;20028;-28
2023/01/25 08:36:22;;;;;;;8.85;4.78;;;;;;;2.38;83.01;101622.75;5088512;28;20060;-27
2023/01/25 08:38:53;;;;;;;15.27;8.85;;;;;;;2.42;81.86;101608.38;5070416;28;20024;-29
2023/01/25 08:41:19;;;;;;;15.00;8.57;;;;;;;2.62;82.33;101611.16;5070188;28;20041;-28
2023/01/25 08:43:45;;;;;;;10.43;5.07;;;;;;;2.65;82.65;101618.78;5068548;28;20028;-29
2023/01/25 08:46:11;;;;;;;9.93;4.38;;;;;;;2.74;80.20;101609.31;5068169;28;20032;-28
2023/01/25 08:48:37;;;;;;;26.15;21.52;;;;;;;2.68;79.92;101618.53;5068462;28;20057;-27
2023/01/25 08:51:03;;;;;;;11.40;6.10;;;;;;;2.57;80.96;101613.34;5068295;28;20071;-28
2023/01/25 08:53:30;;;;;;;58.13;27.00;;;;;;;2.78;80.37;101614.16;5050214;28;20028;-28
2023/01/25 08:56:01;;;;;;;8.40;4.00;;;;;;;2.84;79.69;101609.34;5069637;28;20021;-27
2023/01/25 08:58:26;;;;;;;8.20;4.13;;;;;;;2.56;81.21;101612.50;5088581;28;20032;-28
2023/01/25 09:00:51;;;;;;;11.40;4.72;;;;;;;2.49;82.41;101605.25;5088612;28;20105;-27
2023/01/25 09:03:17;;;;;;;12.77;5.13;;;;;;;2.71;82.66;101599.00;5088432;28;20025;-30
2023/01/25 09:05:42;;;;;;;9.05;3.45;;;;;;;2.64;82.55;101593.44;5070079;28;20024;-27
2023/01/25 09:08:09;;;;;;;10.27;4.53;;;;;;;2.84;81.73;101589.09;5088417;28;20020;-29
2023/01/25 09:10:34;;;;;;;18.27;9.43;;;;;;;2.86;81.53;101597.72;5088421;28;20031;-28
2023/01/25 09:13:00;;;;;;;13.45;7.32;;;;;;;2.78;79.11;101574.66;5091222;28;20039;-28
2023/01/25 09:15:25;;;;;;;20.77;12.85;;;;;;;2.86;81.12;101584.53;5073662;28;20115;-28
2023/01/25 09:17:53;;;;;;;8.77;3.53;;;;;;;3.08;77.74;101586.16;5092735;28;20055;-28
2023/01/25 09:20:18;;;;;;;8.77;4.07;;;;;;;2.84;80.34;101572.44;5073400;28;20131;-29
2023/01/25 09:22:44;;;;;;;10.43;5.43;;;;;;;3.01;80.69;101574.47;5092383;28;20153;-27
2023/01/25 09:25:10;;;;;;;8.65;4.70;;;;;;;3.21;79.78;101562.22;5073708;28;20112;-28
2023/01/25 09:27:36;;;;;;;6.65;3.38;;;;;;;2.97;79.18;101573.06;5091491;28;20031;-28
2023/01/25 09:30:01;;;;;;;6.95;3.35;;;;;;;2.88;78.83;101568.59;5073849;28;20024;-29
2023/01/25 09:32:26;;;;;;;9.52;3.47;;;;;;;2.53;81.24;101562.72;5091841;28;20036;-28
2023/01/25 09:34:52;;;;;;;30.15;17.90;;;;;;;2.67;80.12;101556.28;5091995;28;20028;-29
2023/01/25 09:37:17;;;;;;;8.00;3.03;;;;;;;2.75;78.96;101532.75;5054948;28;20049;-28
2023/01/25 09:39:43;;;;;;;16.25;8.40;;;;;;;2.83;78.83;101545.28;5053625;28;20043;-27
2023/01/25 09:42:32;;;;;;;9.82;3.88;;;;;;;3.14;78.53;101538.16;5071361;28;20025;-27
2023/01/25 09:45:15;;;;;;;11.25;5.07;;;;;;;3.10;81.01;101542.03;5071277;28;20028;-29
2023/01/25 09:48:12;;;;;;;9.30;4.00;;;;;;;3.11;79.82;101549.00;5057570;28;20046;-27
2023/01/25 09:50:44;;;;;;;13.20;5.35;;;;;;;3.18;78.98;101542.19;5065947;28;20063;-28
2023/01/25 09:53:24;;;;;;;8.60;3.50;;;;;;;3.03;78.65;101534.81;5073659;28;20131;-27
2023/01/25 09:55:52;;;;;;;14.05;5.80;;;;;;;2.74;79.48;101504.75;5073239;28;20032;-31
2023/01/25 09:58:20;;;;;;;;;;;;;;;2.92;78.62;101538.38;5073633;28;20028;-28
2023/01/25 10:00:49;;;;;;;13.83;6.37;;;;;;;3.07;79.59;101530.94;5073040;28;19912;-30
2023/01/25 10:03:31;;;;;;;14.45;6.78;;;;;;;3.15;79.95;101529.31;5072756;28;20093;-27
2023/01/25 10:05:58;;;;;;;25.88;13.60;;;;;;;3.25;77.79;101523.22;5058269;28;20030;-28
2023/01/25 10:08:50;;;;;;;21.10;10.82;;;;;;;3.38;78.67;101526.44;5053186;28;20123;-28
2023/01/25 10:11:22;;;;;;;16.25;10.60;;;;;;;3.57;76.26;101515.91;5041675;28;20514;-27
2023/01/25 10:13:48;;;;;;;11.85;6.03;;;;;;;3.38;77.44;101514.09;5070913;28;20153;-28
2023/01/25 10:16:30;;;;;;;14.18;7.60;;;;;;;3.53;78.49;101511.06;5071364;28;20500;-27
2023/01/25 10:19:27;;;;;;;21.20;14.43;;;;;;;3.76;76.37;101511.63;5068293;28;20036;-29
2023/01/25 10:22:19;;;;;;;13.98;8.02;;;;;;;3.50;75.07;101496.34;5076322;28;20169;-31
2023/01/25 10:24:53;;;;;;;56.63;25.10;;;;;;;3.49;74.78;101488.56;5087161;28;20039;-27
2023/01/25 10:27:19;;;;;;;9.77;4.32;;;;;;;3.51;76.44;101490.09;5086972;28;20032;-26
2023/01/25 10:29:46;;;;;;;21.42;13.18;;;;;;;3.42;74.60;101480.38;5071309;28;20119;-28
2023/01/25 10:32:32;;;;;;;34.65;21.17;;;;;;;3.38;75.89;101486.88;5071111;28;20035;-33
2023/01/25 10:35:17;;;;;;;13.98;4.32;;;;;;;3.45;76.70;101466.06;5070841;28;20111;-29
2023/01/25 10:37:44;;;;;;;63.67;24.83;;;;;;;3.73;74.54;101459.13;5063105;28;20062;-28
2023/01/25 10:40:25;;;;;;;34.67;17.15;;;;;;;3.70;75.98;101462.03;5089647;28;20028;-30
2023/01/25 10:42:57;;;;;;;10.48;4.57;;;;;;;3.72;75.83;101441.63;5087647;28;20040;-32
2023/01/25 10:45:22;;;;;;;46.97;21.45;;;;;;;3.92;77.66;101453.81;5086536;28;20095;-28
2023/01/25 10:48:07;;;;;;;9.77;4.95;;;;;;;3.76;76.16;101438.59;5069058;28;20472;-27
2023/01/25 10:50:45;;;;;;;34.78;16.63;;;;;;;3.91;77.96;101462.72;5090365;28;20040;-29
2023/01/25 10:53:24;;;;;;;29.50;18.65;;;;;;;3.68;74.31;101449.00;5090224;28;20028;-29
2023/01/25 10:56:07;;;;;;;21.52;13.13;;;;;;;3.59;76.95;101445.38;5090460;28;20028;-28
2023/01/25 10:58:44;;;;;;;10.13;3.58;;;;;;;3.54;76.50;101429.16;5090777;28;20039;-29
2023/01/25 11:01:23;;;;;;;7.60;3.13;;;;;;;3.38;77.01;101424.44;5090313;28;20567;-31
2023/01/25 11:03:48;;;;;;;8.00;3.22;;;;;;;3.44;76.56;101438.88;5084120;28;20035;-29
2023/01/25 11:06:27;;;;;;;9.43;4.10;;;;;;;3.28;77.97;101431.50;5072599;28;20036;-30
2023/01/25 11:08:52;;;;;;;8.48;4.15;;;;;;;3.12;78.81;101429.41;5068590;28;20548;-29
2023/01/25 11:11:36;;;;;;;10.13;4.35;;;;;;;3.34;78.39;101444.13;5069666;28;20112;-29
2023/01/25 11:14:15;;;;;;;8.65;4.10;;;;;;;3.57;76.66;101433.31;5071512;28;20024;-29
2023/01/25 11:16:45;;;;;;;7.47;3.60;;;;;;;3.78;75.82;101436.66;5060658;28;20106;-28
2023/01/25 11:19:31;;;;;;;8.15;3.15;;;;;;;3.74;76.32;101440.53;5069720;28;20520;-30
2023/01/25 11:21:58;;;;;;;7.20;3.28;;;;;;;3.68;74.79;101434.97;5069676;28;20119;-29
2023/01/25 11:24:29;;;;;;;10.60;4.53;;;;;;;3.71;77.82;101424.97;5051155;28;20678;-29
2023/01/25 11:27:18;;;;;;;7.30;2.67;;;;;;;3.81;74.71;101414.41;5069615;28;20033;-29
2023/01/25 11:29:45;;;;;;;20.35;12.73;;;;;;;3.66;75.36;101399.97;5068037;28;20059;-28
2023/01/25 11:32:23;;;;;;;7.03;3.25;;;;;;;3.85;75.39;101405.22;5069166;28;20170;-35
2023/01/25 11:34:50;;;;;;;11.45;5.07;;;;;;;3.94;76.99;101400.91;5068979;28;20039;-29